Watertown, WI

12:49 AM CST on January 31, 2015 (GMT -0600)
K9LUK's Station | Change Station
CLOSE
Current Station
Personal Weather Station
Location: Watertown, WI
Elevation: 834 ft
Nearby Weather Stations

Elev 834 ft 43.20 °N, 88.75 °W | Updated 1 second ago

Overcast
Overcast
19.4 °F
Feels Like 19 °F
N
0.0
Wind Variable Wind from South
Gusts 0.0 mph

Today
High -- | Low -- °F
--% Chance of Precip.
Yesterday
High -- | Low -- °F
Precip. -- in
7:11 AM 5:05 PM
Waxing Gibbous, 88% visible
Pressure 30.26 in
Visibility 10.0 miles
Clouds Overcast 10000 ft
Windchill 19 °F
Dew Point 13 °F
Humidity 75%
Rainfall 0.00 in
Snow Depth Not available.
UV 0 out of 12
Pollen .10 out of 12
Air Quality Not available.
Flu Activity Not available.
METAR KRYV 310635Z AUTO 18003KT 10SM OVC100 M07/M10 A3026 RMK AO2 T10711096

More Conditions Fewer Conditions

Pressure 30.26 in
Visibility 10.0 miles
Clouds Overcast 10000 ft
Windchill 19 °F
Dew Point 13 °F
Humidity 75%
Rainfall 0.00 in
Snow Depth Not available.
UV 0 out of 12
Pollen .10 out of 12
Air Quality Not available.
Flu Activity Not available.
METAR KRYV 310635Z AUTO 18003KT 10SM OVC100 M07/M10 A3026 RMK AO2 T10711096

More Conditions Fewer Conditions

10-Day Weather Forecast

Almanac

Astronomy

Jan. 31, 2015 Rise Set
Actual Time
Civil Twilight
Nautical Twilight
Astronomical Twilight
Moon
Length of Visible Light
Length of Day
Tomorrow will be .
, % of the Moon is Illuminated

Today's Extremes

State Highs State Lows

Community

WunderPhotos

Upload Photos

1,792,013 photos uploaded!

WunderBlogs® & News

Nearby

Air Quality

  Air Quality AQ Index Pollutant
Not available.

Snow Depth

Station Depth Elevation

Earthquake Activity

City Distance Mag. Time & Date
Minimum magnitude displayed is 2.5.

Coastal Water Temperatures

Place Temperature

Nearby Weather Stations